ADDS METAR Data INFO
IDs: Format: Raw Decoded Include TAF

Data at: 1748 UTC 15 Dec 2017

KRUE 151653Z AUTO VRB04KT 10SM CLR 07/M02 A3022 RMK AO2 SLP234 T00671017
KRUE 151553Z AUTO 00000KT 10SM CLR 03/M01 A3025 RMK AO2 SLP242 T00331006
KRUE 151453Z AUTO 00000KT 10SM CLR 00/M02 A3024 RMK AO2 SLP239 T00001017 51014
KRUE 151353Z AUTO 00000KT 10SM BKN055 M02/M03 A3022 RMK AO2 SLP234 T10221033
KRUE 151253Z AUTO 07003KT 10SM BKN048 OVC060 M03/M04 A3021 RMK AO2 SLP230 T10281039
KRUE 151153Z AUTO 00000KT 10SM SCT050 M04/M05 A3020 RMK AO2 SLP224 T10441050 11028 21050 51007
KRUE 151053Z AUTO 00000KT 10SM CLR M04/M05 A3019 RMK AO2 SLP223 T10391050
KRUE 150953Z AUTO 00000KT 10SM OVC060 M03/M04 A3018 RMK AO2 SLP219 T10281044
KRUE 150853Z AUTO 00000KT 10SM CLR M04/M05 A3018 RMK AO2 SLP217 T10391050 55000
KRUE 150753Z AUTO 00000KT 10SM CLR M03/M05 A3016 RMK AO2 SLP212 T10331050
KRUE 150653Z AUTO 00000KT 10SM CLR M03/M05 A3017 RMK AO2 SLP215 T10331050
KRUE 150553Z AUTO 00000KT 10SM CLR M03/M05 A3018 RMK AO2 SLP218 T10281050 10072 21028 401171028 51008
KRUE 150453Z AUTO 00000KT 10SM CLR M02/M04 A3017 RMK AO2 SLP214 T10171044
KRUE 150353Z AUTO 00000KT 10SM CLR 00/M04 A3017 RMK AO2 SLP213 T00001039
KRUE 150253Z AUTO 00000KT 10SM CLR 00/M04 A3015 RMK AO2 SLP209 T00001044 51019
KRUE 150153Z AUTO 33003KT 10SM CLR 04/M04 A3014 RMK AO2 SLP205 T00441044
KRUE 150053Z AUTO 36003KT 10SM CLR 05/M04 A3012 RMK AO2 SLP199 T00501044
KRUE 142353Z AUTO 35005KT 10SM CLR 07/M04 A3009 RMK AO2 SLP190 T00721039 10117 20072 53022
KRUE 142253Z AUTO 35008KT 10SM CLR 09/M03 A3006 RMK AO2 SLP176 T00941033
KRUE 142153Z AUTO 35007KT 10SM CLR 11/M03 A3003 RMK AO2 SLP167 T01111028
KRUE 142053Z AUTO 34009KT 10SM CLR 11/M03 A3003 RMK AO2 SLP166 T01111033 55014
KRUE 141953Z AUTO 31009KT 10SM CLR 11/M03 A3003 RMK AO2 SLP166 T01111028
KRUE 141853Z AUTO VRB03KT 10SM CLR 11/M03 A3004 RMK AO2 SLP170 T01061028
KRUE 141753Z AUTO VRB04KT 10SM CLR 10/M02 A3007 RMK AO2 SLP179 T01001022 10106 21028 50003
KRUE 141653Z AUTO 36008KT 10SM CLR 10/M02 A3007 RMK AO2 SLP182 T01001022
KRUE 141553Z AUTO 02008KT 10SM CLR 09/M02 A3008 RMK AO2 SLP182 T00941017
KRUE 141453Z AUTO 00000KT 10SM CLR 05/01 A3006 RMK AO2 SLP177 T00500011 51034
KRUE 141353Z AUTO 00000KT 10SM CLR M01/M01 A3002 RMK AO2 SLP166 T10061011
KRUE 141253Z AUTO 00000KT 10SM CLR M02/M03 A3000 RMK AO2 SLP156 T10221033
KRUE 141153Z AUTO 00000KT 10SM CLR M02/M03 A2996 RMK AO2 SLP143 T10221033 10017 21022 53015
KRUE 141053Z AUTO 00000KT 10SM CLR M02/M03 A2994 RMK AO2 SLP135 T10171028
KRUE 140953Z AUTO 00000KT 10SM CLR M02/M03 A2992 RMK AO2 SLP129 T10221033
KRUE 140853Z AUTO 25003KT 10SM CLR M01/M02 A2991 RMK AO2 SLP127 T10061022 53005
KRUE 140753Z AUTO 00000KT 10SM CLR M01/M02 A2991 RMK AO2 SLP124 T10061022
KRUE 140653Z AUTO 00000KT 10SM CLR 01/M02 A2990 RMK AO2 SLP120 T00061022
KRUE 140553Z AUTO 00000KT 10SM CLR 01/M02 A2990 RMK AO2 SLP122 T00111022 10078 20011 401721050 51011